sensor_id;sensor_type;location;lat;lon;timestamp;pressure;altitude;pressure_sealevel;temperature;humidity
40384;BME280;26097;42.366;23.818;2022-12-18T00:01:57;94720.00;;;7.21;100.00
40384;BME280;26097;42.366;23.818;2022-12-18T00:05:01;94719.34;;;7.18;100.00
40384;BME280;26097;42.366;23.818;2022-12-18T00:08:04;94726.19;;;7.19;100.00
40384;BME280;26097;42.366;23.818;2022-12-18T00:11:10;94730.53;;;7.18;100.00
40384;BME280;26097;42.366;23.818;2022-12-18T00:14:11;94722.06;;;7.14;100.00
40384;BME280;26097;42.366;23.818;2022-12-18T00:17:12;94729.19;;;7.11;100.00
40384;BME280;26097;42.366;23.818;2022-12-18T00:20:13;94728.44;;;7.09;100.00
40384;BME280;26097;42.366;23.818;2022-12-18T00:23:13;94728.06;;;6.99;100.00
40384;BME280;26097;42.366;23.818;2022-12-18T00:26:16;94724.78;;;6.95;100.00
40384;BME280;26097;42.366;23.818;2022-12-18T00:29:17;94738.91;;;6.90;100.00
40384;BME280;26097;42.366;23.818;2022-12-18T00:32:17;94739.28;;;6.82;100.00
40384;BME280;26097;42.366;23.818;2022-12-18T00:35:18;94737.78;;;6.78;100.00
40384;BME280;26097;42.366;23.818;2022-12-18T00:38:18;94738.84;;;6.74;100.00
40384;BME280;26097;42.366;23.818;2022-12-18T00:41:19;94747.44;;;6.74;100.00
40384;BME280;26097;42.366;23.818;2022-12-18T00:44:38;94758.50;;;6.78;100.00
40384;BME280;26097;42.366;23.818;2022-12-18T00:47:38;94748.28;;;6.75;100.00
40384;BME280;26097;42.366;23.818;2022-12-18T00:50:39;94751.81;;;6.74;100.00
40384;BME280;26097;42.366;23.818;2022-12-18T00:53:39;94763.84;;;6.75;100.00
40384;BME280;26097;42.366;23.818;2022-12-18T00:56:41;94762.91;;;6.76;100.00
40384;BME280;26097;42.366;23.818;2022-12-18T00:59:41;94763.69;;;6.78;100.00
40384;BME280;26097;42.366;23.818;2022-12-18T01:02:42;94775.94;;;6.74;100.00
40384;BME280;26097;42.366;23.818;2022-12-18T01:05:42;94776.19;;;6.69;100.00
40384;BME280;26097;42.366;23.818;2022-12-18T01:08:44;94770.31;;;6.66;100.00
40384;BME280;26097;42.366;23.818;2022-12-18T01:11:44;94774.97;;;6.59;100.00
40384;BME280;26097;42.366;23.818;2022-12-18T01:14:44;94764.59;;;6.59;100.00
40384;BME280;26097;42.366;23.818;2022-12-18T01:17:45;94771.75;;;6.54;100.00
40384;BME280;26097;42.366;23.818;2022-12-18T01:20:45;94777.47;;;6.43;100.00
40384;BME280;26097;42.366;23.818;2022-12-18T01:23:46;94783.84;;;6.36;100.00
40384;BME280;26097;42.366;23.818;2022-12-18T01:26:47;94788.34;;;6.32;100.00
40384;BME280;26097;42.366;23.818;2022-12-18T01:29:48;94790.38;;;6.25;100.00
40384;BME280;26097;42.366;23.818;2022-12-18T01:32:49;94800.25;;;6.17;100.00
40384;BME280;26097;42.366;23.818;2022-12-18T01:35:49;94791.72;;;6.15;100.00
40384;BME280;26097;42.366;23.818;2022-12-18T01:38:50;94801.41;;;6.11;100.00
40384;BME280;26097;42.366;23.818;2022-12-18T01:41:51;94796.34;;;6.08;100.00
40384;BME280;26097;42.366;23.818;2022-12-18T01:45:22;94809.38;;;6.07;100.00
40384;BME280;26097;42.366;23.818;2022-12-18T01:48:23;94805.00;;;6.07;100.00
40384;BME280;26097;42.366;23.818;2022-12-18T01:51:23;94795.84;;;6.00;100.00
40384;BME280;26097;42.366;23.818;2022-12-18T01:54:24;94811.50;;;5.97;100.00
40384;BME280;26097;42.366;23.818;2022-12-18T01:57:25;94812.56;;;5.93;100.00
40384;BME280;26097;42.366;23.818;2022-12-18T02:00:27;94818.00;;;5.86;100.00
40384;BME280;26097;42.366;23.818;2022-12-18T02:03:27;94806.28;;;5.79;100.00
40384;BME280;26097;42.366;23.818;2022-12-18T02:06:39;94809.16;;;5.73;100.00
40384;BME280;26097;42.366;23.818;2022-12-18T02:13:25;94803.53;;;5.63;100.00
40384;BME280;26097;42.366;23.818;2022-12-18T02:23:19;94792.41;;;5.42;100.00
40384;BME280;26097;42.366;23.818;2022-12-18T02:29:52;94815.19;;;5.34;100.00
40384;BME280;26097;42.366;23.818;2022-12-18T02:32:54;94819.81;;;5.25;100.00
40384;BME280;26097;42.366;23.818;2022-12-18T02:35:57;94815.69;;;5.21;100.00
40384;BME280;26097;42.366;23.818;2022-12-18T02:39:00;94815.97;;;5.15;100.00
40384;BME280;26097;42.366;23.818;2022-12-18T02:42:01;94817.00;;;5.11;100.00
40384;BME280;26097;42.366;23.818;2022-12-18T02:45:08;94815.59;;;5.04;100.00
40384;BME280;26097;42.366;23.818;2022-12-18T02:48:08;94831.22;;;5.00;100.00
40384;BME280;26097;42.366;23.818;2022-12-18T02:51:12;94818.81;;;4.88;100.00
40384;BME280;26097;42.366;23.818;2022-12-18T02:54:49;94826.03;;;4.80;100.00
40384;BME280;26097;42.366;23.818;2022-12-18T03:05:01;94834.59;;;4.60;100.00
40384;BME280;26097;42.366;23.818;2022-12-18T03:08:08;94833.31;;;4.49;100.00
40384;BME280;26097;42.366;23.818;2022-12-18T03:11:12;94823.22;;;4.43;100.00
40384;BME280;26097;42.366;23.818;2022-12-18T03:14:15;94833.00;;;4.35;100.00
40384;BME280;26097;42.366;23.818;2022-12-18T03:17:20;94841.03;;;4.27;100.00
40384;BME280;26097;42.366;23.818;2022-12-18T03:20:22;94834.31;;;4.23;100.00
40384;BME280;26097;42.366;23.818;2022-12-18T03:23:29;94844.78;;;4.20;100.00
40384;BME280;26097;42.366;23.818;2022-12-18T03:26:34;94860.19;;;4.21;100.00
40384;BME280;26097;42.366;23.818;2022-12-18T03:29:46;94862.84;;;4.20;100.00
40384;BME280;26097;42.366;23.818;2022-12-18T03:33:16;94867.16;;;4.19;100.00
40384;BME280;26097;42.366;23.818;2022-12-18T03:36:19;94878.38;;;4.18;100.00
40384;BME280;26097;42.366;23.818;2022-12-18T03:39:20;94881.03;;;4.17;100.00
40384;BME280;26097;42.366;23.818;2022-12-18T03:42:27;94888.75;;;4.17;100.00
40384;BME280;26097;42.366;23.818;2022-12-18T03:45:38;94884.44;;;4.17;100.00
40384;BME280;26097;42.366;23.818;2022-12-18T03:48:44;94897.41;;;4.16;100.00
40384;BME280;26097;42.366;23.818;2022-12-18T03:51:59;94900.81;;;4.16;100.00
40384;BME280;26097;42.366;23.818;2022-12-18T03:55:03;94899.91;;;4.17;100.00
40384;BME280;26097;42.366;23.818;2022-12-18T03:58:06;94907.81;;;4.12;100.00
40384;BME280;26097;42.366;23.818;2022-12-18T04:01:08;94905.31;;;4.11;100.00
40384;BME280;26097;42.366;23.818;2022-12-18T04:04:12;94904.53;;;4.09;100.00
40384;BME280;26097;42.366;23.818;2022-12-18T04:07:14;94913.44;;;4.00;100.00
40384;BME280;26097;42.366;23.818;2022-12-18T04:10:16;94918.72;;;3.97;100.00
40384;BME280;26097;42.366;23.818;2022-12-18T04:13:24;94906.81;;;3.93;100.00
40384;BME280;26097;42.366;23.818;2022-12-18T04:16:28;94913.00;;;3.89;100.00
40384;BME280;26097;42.366;23.818;2022-12-18T04:19:28;94928.66;;;3.84;100.00
40384;BME280;26097;42.366;23.818;2022-12-18T04:22:29;94930.38;;;3.83;100.00
40384;BME280;26097;42.366;23.818;2022-12-18T04:25:29;94925.25;;;3.82;100.00
40384;BME280;26097;42.366;23.818;2022-12-18T04:28:29;94936.47;;;3.81;100.00
40384;BME280;26097;42.366;23.818;2022-12-18T04:31:30;94928.66;;;3.84;100.00
40384;BME280;26097;42.366;23.818;2022-12-18T04:34:30;94941.59;;;3.82;100.00
40384;BME280;26097;42.366;23.818;2022-12-18T04:37:30;94938.91;;;3.85;100.00
40384;BME280;26097;42.366;23.818;2022-12-18T04:40:31;94948.19;;;3.90;100.00
40384;BME280;26097;42.366;23.818;2022-12-18T04:43:31;94951.56;;;3.92;100.00
40384;BME280;26097;42.366;23.818;2022-12-18T04:46:33;94953.09;;;3.97;100.00
40384;BME280;26097;42.366;23.818;2022-12-18T04:49:33;94966.97;;;3.95;100.00
40384;BME280;26097;42.366;23.818;2022-12-18T04:52:33;94976.38;;;3.96;100.00
40384;BME280;26097;42.366;23.818;2022-12-18T04:55:34;94989.28;;;3.96;100.00
40384;BME280;26097;42.366;23.818;2022-12-18T04:58:35;94996.00;;;4.00;100.00
40384;BME280;26097;42.366;23.818;2022-12-18T05:01:36;95009.66;;;4.04;100.00
40384;BME280;26097;42.366;23.818;2022-12-18T05:04:36;95001.06;;;4.03;100.00
40384;BME280;26097;42.366;23.818;2022-12-18T05:07:37;95006.25;;;4.02;100.00
40384;BME280;26097;42.366;23.818;2022-12-18T05:10:37;95001.94;;;4.02;100.00
40384;BME280;26097;42.366;23.818;2022-12-18T05:13:38;95014.84;;;4.02;100.00
40384;BME280;26097;42.366;23.818;2022-12-18T05:16:39;95011.47;;;4.00;100.00
40384;BME280;26097;42.366;23.818;2022-12-18T05:19:39;95023.78;;;3.92;100.00
40384;BME280;26097;42.366;23.818;2022-12-18T05:22:39;95028.13;;;3.91;100.00
40384;BME280;26097;42.366;23.818;2022-12-18T05:25:40;95022.06;;;3.92;100.00
40384;BME280;26097;42.366;23.818;2022-12-18T05:28:40;95029.75;;;3.94;100.00
40384;BME280;26097;42.366;23.818;2022-12-18T05:31:41;95040.16;;;3.91;100.00
40384;BME280;26097;42.366;23.818;2022-12-18T05:34:41;95036.66;;;3.93;100.00
40384;BME280;26097;42.366;23.818;2022-12-18T05:37:41;95051.25;;;3.93;100.00
40384;BME280;26097;42.366;23.818;2022-12-18T05:40:42;95058.06;;;3.95;100.00
40384;BME280;26097;42.366;23.818;2022-12-18T05:43:43;95057.25;;;3.95;100.00
40384;BME280;26097;42.366;23.818;2022-12-18T05:46:44;95059.81;;;3.95;100.00
40384;BME280;26097;42.366;23.818;2022-12-18T05:49:44;95061.59;;;3.93;100.00
40384;BME280;26097;42.366;23.818;2022-12-18T05:52:44;95066.06;;;3.88;100.00
40384;BME280;26097;42.366;23.818;2022-12-18T05:55:45;95071.22;;;3.88;100.00
40384;BME280;26097;42.366;23.818;2022-12-18T05:58:47;95068.06;;;3.79;100.00
40384;BME280;26097;42.366;23.818;2022-12-18T06:01:47;95063.91;;;3.75;100.00
40384;BME280;26097;42.366;23.818;2022-12-18T06:04:48;95078.63;;;3.71;100.00
40384;BME280;26097;42.366;23.818;2022-12-18T06:07:49;95079.56;;;3.69;100.00
40384;BME280;26097;42.366;23.818;2022-12-18T06:10:50;95090.00;;;3.66;100.00
40384;BME280;26097;42.366;23.818;2022-12-18T06:13:53;95109.03;;;3.62;100.00
40384;BME280;26097;42.366;23.818;2022-12-18T06:16:53;95103.88;;;3.62;100.00
40384;BME280;26097;42.366;23.818;2022-12-18T06:19:54;95101.41;;;3.59;100.00
40384;BME280;26097;42.366;23.818;2022-12-18T06:22:54;95108.16;;;3.63;100.00
40384;BME280;26097;42.366;23.818;2022-12-18T06:25:55;95108.16;;;3.63;100.00
40384;BME280;26097;42.366;23.818;2022-12-18T06:28:55;95104.81;;;3.59;100.00
40384;BME280;26097;42.366;23.818;2022-12-18T06:31:56;95122.75;;;3.62;100.00
40384;BME280;26097;42.366;23.818;2022-12-18T06:34:56;95111.63;;;3.62;100.00
40384;BME280;26097;42.366;23.818;2022-12-18T06:37:56;95120.03;;;3.67;100.00
40384;BME280;26097;42.366;23.818;2022-12-18T06:40:57;95132.91;;;3.68;100.00
40384;BME280;26097;42.366;23.818;2022-12-18T06:43:57;95148.13;;;3.76;100.00
40384;BME280;26097;42.366;23.818;2022-12-18T06:46:58;95146.63;;;3.69;100.00
40384;BME280;26097;42.366;23.818;2022-12-18T06:49:58;95148.13;;;3.76;100.00
40384;BME280;26097;42.366;23.818;2022-12-18T06:52:59;95163.97;;;3.64;100.00
40384;BME280;26097;42.366;23.818;2022-12-18T06:56:01;95150.50;;;3.55;100.00
40384;BME280;26097;42.366;23.818;2022-12-18T06:59:02;95166.78;;;3.56;100.00
40384;BME280;26097;42.366;23.818;2022-12-18T07:02:02;95153.00;;;3.57;100.00
40384;BME280;26097;42.366;23.818;2022-12-18T07:05:03;95160.69;;;3.59;100.00
40384;BME280;26097;42.366;23.818;2022-12-18T07:08:03;95164.66;;;3.69;100.00
40384;BME280;26097;42.366;23.818;2022-12-18T07:11:04;95161.25;;;3.68;100.00
40384;BME280;26097;42.366;23.818;2022-12-18T07:14:05;95173.06;;;3.76;100.00
40384;BME280;26097;42.366;23.818;2022-12-18T07:17:05;95166.88;;;3.81;100.00
40384;BME280;26097;42.366;23.818;2022-12-18T07:20:06;95170.56;;;3.99;100.00
40384;BME280;26097;42.366;23.818;2022-12-18T07:23:06;95171.97;;;4.10;100.00
40384;BME280;26097;42.366;23.818;2022-12-18T07:26:09;95168.81;;;4.27;100.00
40384;BME280;26097;42.366;23.818;2022-12-18T07:29:10;95154.72;;;4.37;100.00
40384;BME280;26097;42.366;23.818;2022-12-18T07:32:10;95169.38;;;4.61;100.00
40384;BME280;26097;42.366;23.818;2022-12-18T07:35:11;95164.41;;;4.56;100.00
40384;BME280;26097;42.366;23.818;2022-12-18T07:38:11;95178.94;;;4.58;100.00
40384;BME280;26097;42.366;23.818;2022-12-18T07:41:12;95198.22;;;4.48;100.00
40384;BME280;26097;42.366;23.818;2022-12-18T07:44:13;95190.53;;;4.47;100.00
40384;BME280;26097;42.366;23.818;2022-12-18T07:47:13;95187.91;;;4.48;100.00
40384;BME280;26097;42.366;23.818;2022-12-18T07:50:14;95199.31;;;4.41;100.00
40384;BME280;26097;42.366;23.818;2022-12-18T07:53:15;95197.47;;;4.45;100.00
40384;BME280;26097;42.366;23.818;2022-12-18T07:56:15;95198.00;;;4.54;100.00
40384;BME280;26097;42.366;23.818;2022-12-18T07:59:15;95203.94;;;4.58;100.00
40384;BME280;26097;42.366;23.818;2022-12-18T08:02:16;95200.72;;;4.51;100.00
40384;BME280;26097;42.366;23.818;2022-12-18T08:05:16;95194.91;;;4.45;100.00
40384;BME280;26097;42.366;23.818;2022-12-18T08:08:17;95201.19;;;4.37;100.00
40384;BME280;26097;42.366;23.818;2022-12-18T08:11:17;95213.31;;;4.35;100.00
40384;BME280;26097;42.366;23.818;2022-12-18T08:14:18;95201.91;;;4.66;100.00
40384;BME280;26097;42.366;23.818;2022-12-18T08:17:19;95207.41;;;4.57;100.00
40384;BME280;26097;42.366;23.818;2022-12-18T08:20:19;95209.72;;;4.65;100.00
40384;BME280;26097;42.366;23.818;2022-12-18T08:23:20;95215.19;;;4.81;100.00
40384;BME280;26097;42.366;23.818;2022-12-18T08:26:21;95212.31;;;5.14;100.00
40384;BME280;26097;42.366;23.818;2022-12-18T08:29:21;95202.25;;;5.30;100.00
40384;BME280;26097;42.366;23.818;2022-12-18T08:32:21;95202.84;;;5.37;100.00
40384;BME280;26097;42.366;23.818;2022-12-18T08:35:22;95198.56;;;5.60;100.00
40384;BME280;26097;42.366;23.818;2022-12-18T08:38:22;95198.91;;;5.50;100.00
40384;BME280;26097;42.366;23.818;2022-12-18T08:41:23;95199.88;;;5.24;100.00
40384;BME280;26097;42.366;23.818;2022-12-18T08:44:23;95207.38;;;5.32;100.00
40384;BME280;26097;42.366;23.818;2022-12-18T08:47:39;95194.72;;;5.24;100.00
40384;BME280;26097;42.366;23.818;2022-12-18T08:50:40;95192.41;;;5.16;100.00
40384;BME280;26097;42.366;23.818;2022-12-18T08:53:40;95208.81;;;5.15;100.00
40384;BME280;26097;42.366;23.818;2022-12-18T08:56:41;95199.47;;;5.11;100.00
40384;BME280;26097;42.366;23.818;2022-12-18T08:59:41;95200.88;;;4.96;100.00
40384;BME280;26097;42.366;23.818;2022-12-18T09:02:41;95201.16;;;4.88;100.00
40384;BME280;26097;42.366;23.818;2022-12-18T09:05:42;95196.50;;;4.98;100.00
40384;BME280;26097;42.366;23.818;2022-12-18T09:08:44;95206.31;;;4.88;100.00
40384;BME280;26097;42.366;23.818;2022-12-18T09:11:44;95202.94;;;4.86;100.00
40384;BME280;26097;42.366;23.818;2022-12-18T09:14:45;95210.44;;;4.94;100.00
40384;BME280;26097;42.366;23.818;2022-12-18T09:17:45;95220.03;;;4.90;100.00
40384;BME280;26097;42.366;23.818;2022-12-18T09:20:46;95218.06;;;4.97;100.00
40384;BME280;26097;42.366;23.818;2022-12-18T09:23:50;95206.91;;;5.20;100.00
40384;BME280;26097;42.366;23.818;2022-12-18T09:26:54;95214.69;;;5.19;100.00
40384;BME280;26097;42.366;23.818;2022-12-18T09:29:55;95206.56;;;5.29;100.00
40384;BME280;26097;42.366;23.818;2022-12-18T09:32:55;95221.75;;;5.15;100.00
40384;BME280;26097;42.366;23.818;2022-12-18T09:35:56;95234.44;;;4.97;100.00
40384;BME280;26097;42.366;23.818;2022-12-18T09:38:56;95226.97;;;4.88;100.00
40384;BME280;26097;42.366;23.818;2022-12-18T09:41:58;95221.56;;;4.96;100.00
40384;BME280;26097;42.366;23.818;2022-12-18T09:44:59;95219.72;;;4.99;100.00
40384;BME280;26097;42.366;23.818;2022-12-18T09:48:00;95221.63;;;4.94;100.00
40384;BME280;26097;42.366;23.818;2022-12-18T09:54:40;95223.19;;;4.98;100.00
40384;BME280;26097;42.366;23.818;2022-12-18T09:57:54;95217.25;;;5.20;100.00
40384;BME280;26097;42.366;23.818;2022-12-18T10:00:56;95220.72;;;5.19;100.00
40384;BME280;26097;42.366;23.818;2022-12-18T10:03:57;95226.00;;;4.92;100.00
40384;BME280;26097;42.366;23.818;2022-12-18T10:07:05;95227.31;;;4.79;100.00
40384;BME280;26097;42.366;23.818;2022-12-18T10:10:29;95224.16;;;4.70;100.00
40384;BME280;26097;42.366;23.818;2022-12-18T10:13:41;95213.63;;;4.77;100.00
40384;BME280;26097;42.366;23.818;2022-12-18T10:20:16;95221.16;;;5.07;100.00
40384;BME280;26097;42.366;23.818;2022-12-18T10:23:27;95214.19;;;5.09;100.00
40384;BME280;26097;42.366;23.818;2022-12-18T10:26:28;95211.69;;;5.07;100.00
40384;BME280;26097;42.366;23.818;2022-12-18T10:29:29;95214.09;;;5.12;100.00
40384;BME280;26097;42.366;23.818;2022-12-18T10:32:30;95214.22;;;5.33;100.00
40384;BME280;26097;42.366;23.818;2022-12-18T10:35:31;95199.13;;;5.44;100.00
40384;BME280;26097;42.366;23.818;2022-12-18T10:38:32;95220.44;;;5.27;100.00
40384;BME280;26097;42.366;23.818;2022-12-18T10:41:33;95203.97;;;5.06;100.00
40384;BME280;26097;42.366;23.818;2022-12-18T10:44:33;95196.34;;;5.03;100.00
40384;BME280;26097;42.366;23.818;2022-12-18T10:47:34;95202.28;;;5.05;100.00
40384;BME280;26097;42.366;23.818;2022-12-18T10:50:37;95206.25;;;5.15;100.00
40384;BME280;26097;42.366;23.818;2022-12-18T10:53:39;95195.66;;;5.21;100.00
40384;BME280;26097;42.366;23.818;2022-12-18T10:56:41;95192.19;;;4.98;100.00
40384;BME280;26097;42.366;23.818;2022-12-18T10:59:54;95200.09;;;4.94;100.00
40384;BME280;26097;42.366;23.818;2022-12-18T11:02:55;95189.25;;;5.08;100.00
40384;BME280;26097;42.366;23.818;2022-12-18T11:06:25;95193.25;;;5.17;100.00
40384;BME280;26097;42.366;23.818;2022-12-18T11:09:30;95195.13;;;5.13;100.00
40384;BME280;26097;42.366;23.818;2022-12-18T11:12:31;95195.63;;;5.23;100.00
40384;BME280;26097;42.366;23.818;2022-12-18T11:15:33;95188.34;;;5.09;100.00
40384;BME280;26097;42.366;23.818;2022-12-18T11:18:34;95182.84;;;5.18;100.00
40384;BME280;26097;42.366;23.818;2022-12-18T11:21:39;95186.00;;;5.26;100.00
40384;BME280;26097;42.366;23.818;2022-12-18T11:24:41;95191.50;;;5.41;100.00
40384;BME280;26097;42.366;23.818;2022-12-18T11:27:48;95198.63;;;5.34;100.00
40384;BME280;26097;42.366;23.818;2022-12-18T11:30:49;95190.47;;;5.45;100.00
40384;BME280;26097;42.366;23.818;2022-12-18T11:33:54;95198.41;;;5.40;100.00
40384;BME280;26097;42.366;23.818;2022-12-18T11:36:57;95190.47;;;5.45;100.00
40384;BME280;26097;42.366;23.818;2022-12-18T11:40:05;95192.75;;;5.31;100.00
40384;BME280;26097;42.366;23.818;2022-12-18T11:43:13;95195.72;;;5.20;100.00
40384;BME280;26097;42.366;23.818;2022-12-18T11:46:32;95205.47;;;5.13;100.00
40384;BME280;26097;42.366;23.818;2022-12-18T11:49:35;95179.50;;;4.92;100.00
40384;BME280;26097;42.366;23.818;2022-12-18T11:52:39;95194.19;;;4.90;100.00
40384;BME280;26097;42.366;23.818;2022-12-18T12:05:28;95208.88;;;4.64;100.00
40384;BME280;26097;42.366;23.818;2022-12-18T12:08:57;95203.59;;;4.67;100.00
40384;BME280;26097;42.366;23.818;2022-12-18T12:22:09;95198.88;;;4.55;100.00
40384;BME280;26097;42.366;23.818;2022-12-18T12:35:14;95218.41;;;4.37;100.00
40384;BME280;26097;42.366;23.818;2022-12-18T12:38:32;95223.09;;;4.51;100.00
40384;BME280;26097;42.366;23.818;2022-12-18T12:41:34;95218.75;;;4.53;100.00
40384;BME280;26097;42.366;23.818;2022-12-18T12:44:55;95219.41;;;4.58;100.00
40384;BME280;26097;42.366;23.818;2022-12-18T12:47:59;95233.22;;;4.57;100.00
40384;BME280;26097;42.366;23.818;2022-12-18T12:51:07;95233.34;;;4.54;100.00
40384;BME280;26097;42.366;23.818;2022-12-18T12:54:20;95228.78;;;4.61;100.00
40384;BME280;26097;42.366;23.818;2022-12-18T13:00:40;95245.03;;;4.64;100.00
40384;BME280;26097;42.366;23.818;2022-12-18T13:04:08;95248.41;;;4.66;100.00
40384;BME280;26097;42.366;23.818;2022-12-18T13:07:39;95263.75;;;4.71;100.00
40384;BME280;26097;42.366;23.818;2022-12-18T13:10:40;95275.28;;;4.86;100.00
40384;BME280;26097;42.366;23.818;2022-12-18T13:16:49;95266.84;;;5.06;100.00
40384;BME280;26097;42.366;23.818;2022-12-18T13:19:52;95270.16;;;5.10;100.00
40384;BME280;26097;42.366;23.818;2022-12-18T13:29:56;95288.19;;;5.11;100.00
40384;BME280;26097;42.366;23.818;2022-12-18T13:36:32;95297.22;;;4.99;100.00
40384;BME280;26097;42.366;23.818;2022-12-18T13:39:34;95303.03;;;5.06;100.00
40384;BME280;26097;42.366;23.818;2022-12-18T13:42:38;95300.50;;;5.05;100.00
40384;BME280;26097;42.366;23.818;2022-12-18T13:52:20;95317.56;;;5.09;100.00
40384;BME280;26097;42.366;23.818;2022-12-18T13:55:22;95326.22;;;5.08;100.00
40384;BME280;26097;42.366;23.818;2022-12-18T13:58:22;95338.34;;;5.06;100.00
40384;BME280;26097;42.366;23.818;2022-12-18T14:01:23;95339.16;;;5.08;100.00
40384;BME280;26097;42.366;23.818;2022-12-18T14:04:26;95347.22;;;4.98;100.00
40384;BME280;26097;42.366;23.818;2022-12-18T14:07:29;95346.84;;;4.84;100.00
40384;BME280;26097;42.366;23.818;2022-12-18T14:10:30;95349.31;;;4.87;100.00
40384;BME280;26097;42.366;23.818;2022-12-18T14:13:33;95352.47;;;4.70;100.00
40384;BME280;26097;42.366;23.818;2022-12-18T14:16:36;95356.16;;;4.63;100.00
40384;BME280;26097;42.366;23.818;2022-12-18T14:19:37;95349.38;;;4.58;100.00
40384;BME280;26097;42.366;23.818;2022-12-18T14:22:48;95358.09;;;4.54;100.00
40384;BME280;26097;42.366;23.818;2022-12-18T14:25:48;95360.66;;;4.56;100.00
40384;BME280;26097;42.366;23.818;2022-12-18T14:28:49;95363.50;;;4.47;100.00
40384;BME280;26097;42.366;23.818;2022-12-18T14:32:06;95357.75;;;4.38;100.00
40384;BME280;26097;42.366;23.818;2022-12-18T14:35:13;95361.13;;;4.40;100.00
40384;BME280;26097;42.366;23.818;2022-12-18T14:41:18;95369.88;;;4.36;100.00
40384;BME280;26097;42.366;23.818;2022-12-18T14:44:19;95376.66;;;4.39;100.00
40384;BME280;26097;42.366;23.818;2022-12-18T14:47:21;95382.72;;;4.38;100.00
40384;BME280;26097;42.366;23.818;2022-12-18T14:50:21;95378.50;;;4.35;100.00
40384;BME280;26097;42.366;23.818;2022-12-18T14:56:37;95383.75;;;4.32;100.00
40384;BME280;26097;42.366;23.818;2022-12-18T14:59:43;95386.50;;;4.26;100.00
40384;BME280;26097;42.366;23.818;2022-12-18T15:02:43;95390.06;;;4.23;100.00
40384;BME280;26097;42.366;23.818;2022-12-18T15:05:45;95389.19;;;4.23;100.00
40384;BME280;26097;42.366;23.818;2022-12-18T15:08:46;95386.63;;;4.23;100.00
40384;BME280;26097;42.366;23.818;2022-12-18T15:11:47;95389.31;;;4.18;100.00
40384;BME280;26097;42.366;23.818;2022-12-18T15:14:47;95384.94;;;4.22;100.00
40384;BME280;26097;42.366;23.818;2022-12-18T15:17:47;95392.69;;;4.20;100.00
40384;BME280;26097;42.366;23.818;2022-12-18T15:21:11;95396.16;;;4.21;100.00
40384;BME280;26097;42.366;23.818;2022-12-18T15:24:18;95396.25;;;4.18;100.00
40384;BME280;26097;42.366;23.818;2022-12-18T15:27:27;95398.91;;;4.14;100.00
40384;BME280;26097;42.366;23.818;2022-12-18T15:30:28;95399.72;;;4.17;100.00
40384;BME280;26097;42.366;23.818;2022-12-18T15:33:37;95405.59;;;4.20;100.00
40384;BME280;26097;42.366;23.818;2022-12-18T15:36:38;95406.47;;;4.21;100.00
40384;BME280;26097;42.366;23.818;2022-12-18T15:39:39;95410.63;;;4.25;100.00
40384;BME280;26097;42.366;23.818;2022-12-18T15:42:39;95408.16;;;4.22;100.00
40384;BME280;26097;42.366;23.818;2022-12-18T15:46:00;95411.66;;;4.19;100.00
40384;BME280;26097;42.366;23.818;2022-12-18T15:49:02;95415.19;;;4.17;100.00
40384;BME280;26097;42.366;23.818;2022-12-18T15:52:03;95428.31;;;4.09;100.00
40384;BME280;26097;42.366;23.818;2022-12-18T15:55:04;95413.75;;;4.06;100.00
40384;BME280;26097;42.366;23.818;2022-12-18T15:58:24;95418.25;;;3.99;100.00
40384;BME280;26097;42.366;23.818;2022-12-18T16:01:27;95431.22;;;3.98;100.00
40384;BME280;26097;42.366;23.818;2022-12-18T16:04:27;95419.53;;;3.84;100.00
40384;BME280;26097;42.366;23.818;2022-12-18T16:07:28;95421.63;;;3.70;100.00
40384;BME280;26097;42.366;23.818;2022-12-18T16:10:28;95432.13;;;3.64;100.00
40384;BME280;26097;42.366;23.818;2022-12-18T16:13:29;95432.41;;;3.53;100.00
40384;BME280;26097;42.366;23.818;2022-12-18T16:16:29;95433.59;;;3.41;100.00
40384;BME280;26097;42.366;23.818;2022-12-18T16:19:29;95435.47;;;3.34;100.00
40384;BME280;26097;42.366;23.818;2022-12-18T16:22:31;95433.91;;;3.28;100.00
40384;BME280;26097;42.366;23.818;2022-12-18T16:25:31;95435.03;;;3.18;100.00
40384;BME280;26097;42.366;23.818;2022-12-18T16:28:32;95437.81;;;3.10;100.00
40384;BME280;26097;42.366;23.818;2022-12-18T16:31:32;95438.00;;;3.03;100.00
40384;BME280;26097;42.366;23.818;2022-12-18T16:34:33;95438.91;;;3.00;100.00
40384;BME280;26097;42.366;23.818;2022-12-18T16:37:34;95445.81;;;2.98;100.00
40384;BME280;26097;42.366;23.818;2022-12-18T16:40:35;95445.91;;;2.93;100.00
40384;BME280;26097;42.366;23.818;2022-12-18T16:43:55;95452.84;;;2.91;100.00
40384;BME280;26097;42.366;23.818;2022-12-18T16:46:55;95447.00;;;2.84;100.00
40384;BME280;26097;42.366;23.818;2022-12-18T16:50:02;95453.00;;;2.85;100.00
40384;BME280;26097;42.366;23.818;2022-12-18T16:53:03;95451.22;;;2.87;100.00
40384;BME280;26097;42.366;23.818;2022-12-18T16:56:03;95470.94;;;2.88;100.00
40384;BME280;26097;42.366;23.818;2022-12-18T16:59:04;95465.78;;;2.88;100.00
40384;BME280;26097;42.366;23.818;2022-12-18T17:02:06;95476.03;;;2.91;100.00
40384;BME280;26097;42.366;23.818;2022-12-18T17:05:10;95478.59;;;2.91;100.00
40384;BME280;26097;42.366;23.818;2022-12-18T17:08:11;95482.06;;;2.90;100.00
40384;BME280;26097;42.366;23.818;2022-12-18T17:11:11;95492.44;;;2.87;100.00
40384;BME280;26097;42.366;23.818;2022-12-18T17:14:17;95501.84;;;2.88;100.00
40384;BME280;26097;42.366;23.818;2022-12-18T17:17:19;95502.66;;;2.90;100.00
40384;BME280;26097;42.366;23.818;2022-12-18T17:20:19;95498.38;;;2.91;100.00
40384;BME280;26097;42.366;23.818;2022-12-18T17:23:20;95493.97;;;2.94;100.00
40384;BME280;26097;42.366;23.818;2022-12-18T17:26:20;95494.66;;;3.03;100.00